Flight Track Log - Related Links

Times and Time Zones

All times are in EDT time to prevent confusion due to time zone crossing. See the UCA3599 flight status page for this flight to view local times or setup timezone preferences in your user account.

Time Position Orientation Groundspeed Altitude Reporting Facility
EDT Latitude Longitude Course Direction KTS MPH feet Rate Location/Type
Fri 06:17:09 AM 42.1386 -76.0172 211° Southwest 168 193 4,800  Level New York Center
Fri 06:18:09 AM 42.0994 -76.0533 214° Southwest 168 193 6,400 1,550 Climbing New York Center
Fri 06:19:09 AM 42.0581 -76.0947 217° Southwest 180 207 7,900 1,450 Climbing New York Center
Fri 06:20:00 AM 41.8213 -76.1636 212° Southwest  Level Estimated
Fri 06:20:09 AM 42.0147 -76.1331 213° Southwest 187 215 9,300  Level New York Center
Fri 06:21:00 AM 41.7567 -76.1941 211° Southwest  Level Estimated
Fri 06:21:09 AM 41.9697 -76.1575 202° Southwest 187 215 10,800  Level New York Center
Fri 06:22:09 AM 41.9161 -76.1919 206° Southwest 192 221 12,200 1,300 Climbing New York Center
Fri 06:23:09 AM 41.8606 -76.2264 205° Southwest 214 246 13,400 1,050 Climbing New York Center
Fri 06:24:09 AM 41.8025 -76.2633 205° Southwest 226 260 14,300 1,050 Climbing New York Center
Fri 06:25:09 AM 41.7511 -76.2953 205° Southwest 231 266 15,500 850 Climbing New York Center
Fri 06:26:09 AM 41.6908 -76.3347 206° Southwest 237 273 16,000 250 Climbing New York Center
Fri 06:27:09 AM 41.6139 -76.3783 203° Southwest 264 304 16,000  Level New York Center
Fri 06:28:09 AM 41.5431 -76.4222 205° Southwest 274 315 16,000  Level New York Center
Fri 06:29:09 AM 41.4744 -76.4664 206° Southwest 280 322 16,000  Level New York Center
Fri 06:30:09 AM 41.4100 -76.5081 206° Southwest 285 328 16,000  Level New York Center
Fri 06:31:09 AM 41.3306 -76.5536 203° Southwest 285 328 16,000  Level New York Center
Fri 06:32:09 AM 41.2617 -76.5975 206° Southwest 285 328 16,000  Level New York Center
Fri 06:33:09 AM 41.1908 -76.6411 205° Southwest 285 328 16,000  Level New York Center
Fri 06:34:09 AM 41.1264 -76.6794 204° Southwest 290 334 16,000  Level New York Center
Fri 06:35:09 AM 41.0556 -76.7228 205° Southwest 290 334 16,000  Level New York Center
Fri 06:36:09 AM 40.9844 -76.7661 205° Southwest 290 334 16,000  Level New York Center
Fri 06:37:09 AM 40.9069 -76.8169 206° Southwest 290 334 16,000  Level New York Center
Fri 06:38:09 AM 40.8383 -76.8575 204° Southwest 283 326 16,000  Level New York Center
Fri 06:39:10 AM 40.7633 -76.8975 202° Southwest 292 336 16,000  Level New York Center
Fri 06:40:09 AM 40.6872 -76.9181 192° South 292 336 16,000  Level New York Center
Fri 06:41:09 AM 40.6108 -76.9414 193° South 287 330 16,000  Level New York Center
Fri 06:42:09 AM 40.5367 -76.9647 193° South 287 330 16,000  Level New York Center
Fri 06:43:09 AM 40.4583 -76.9878 193° South 287 330 16,000 -172 Level New York Center
Fri 06:45:03 AM 40.3167 -77.0333 194° South 297 342 15,500 -321 Descending Potomac TRACON
Fri 06:45:57 AM 40.2333 -77.0500 189° South 301 346 15,100 -500 Descending Potomac TRACON
Fri 06:46:51 AM 40.1667 -77.0833 201° Southwest 305 351 14,600 -667 Descending Potomac TRACON
Fri 06:47:45 AM 40.0833 -77.1000 189° South 305 351 13,900 -789 Descending Potomac TRACON
Fri 06:48:45 AM 40.0167 -77.1333 201° Southwest 302 348 13,100 -789 Descending Potomac TRACON
Fri 06:49:39 AM 39.9333 -77.1500 189° South 300 345 12,400 -789 Descending Potomac TRACON
Fri 06:50:39 AM 39.8667 -77.1833 201° Southwest 293 337 11,600 -850 Descending Potomac TRACON
Fri 06:51:39 AM 39.7833 -77.2333 205° Southwest 291 335 10,700 -1,053 Descending Potomac TRACON
Fri 06:52:33 AM 39.7333 -77.2833 218° Southwest 285 328 9,600 -1,158 Descending Potomac TRACON
Fri 06:53:33 AM 39.6500 -77.3167 197° South 275 316 8,500 -950 Descending Potomac TRACON
Fri 06:54:33 AM 39.5833 -77.3500 201° Southwest 277 319 7,700 -737 Descending Potomac TRACON
Fri 06:55:27 AM 39.5167 -77.3500 180° South 278 320 7,100 -368 Descending Potomac TRACON
Fri 06:56:27 AM 39.4333 -77.3667 189° South 269 310 7,000 -400 Descending Potomac TRACON
Fri 06:57:27 AM 39.3667 -77.3667 180° South 257 296 6,300 -1,000 Descending Potomac TRACON
Fri 06:58:21 AM 39.3000 -77.3667 180° South 258 297 5,100 -789 Descending Potomac TRACON
Fri 06:59:21 AM 39.2333 -77.3667 180° South 249 287 4,800 -550 Descending Potomac TRACON
Fri 07:00:21 AM 39.1667 -77.3500 169° South 249 287 4,000 -400 Descending Potomac TRACON
Fri 07:01:21 AM 39.0833 -77.3500 180° South 242 278 4,000 -200 Level Potomac TRACON
Fri 07:02:21 AM 39.0167 -77.3500 180° South 253 291 3,600 -526 Descending Potomac TRACON
Fri 07:03:15 AM 38.9667 -77.3500 180° South 257 296 3,000 -316 Descending Potomac TRACON
Fri 07:04:15 AM 38.9000 -77.3500 180° South 249 287 3,000 -350 Level Potomac TRACON
Fri 07:05:15 AM 38.8333 -77.3833 201° Southwest 224 258 2,300 -750 Descending Potomac TRACON
Fri 07:06:15 AM 38.8667 -77.4333 311° West 162 186 1,500 -700 Descending Potomac TRACON
Fri 07:07:15 AM 38.9000 -77.4333 360° North 108 124 900 -600 Descending Potomac TRACON
Fri 07:09:00 AM 38.9333 -77.4500 349° North  Level FlightAware Approximate
Fri 07:16:00 AM 38.9474 -77.4599 349° North  Level Estimated
Fri 07:17:00 AM 38.9474 -77.4599 349° North  Level Estimated

Login

Don't have an account? Register now (free) for customized features, flight alerts, and more!